createdAt,value
2023-03-23T00:00:05.946Z,2.10
2023-03-23T00:01:05.931Z,2.00
2023-03-23T00:02:05.918Z,1.80
2023-03-23T00:03:05.943Z,2.10
2023-03-23T00:04:05.894Z,2.30
2023-03-23T00:05:05.886Z,2.00
2023-03-23T00:06:05.871Z,1.90
2023-03-23T00:07:05.872Z,1.70
2023-03-23T00:08:05.855Z,1.90
2023-03-23T00:09:05.866Z,1.70
2023-03-23T00:10:05.829Z,2.50
2023-03-23T00:11:05.823Z,2.10
2023-03-23T00:12:05.807Z,2.40
2023-03-23T00:13:05.799Z,2.00
2023-03-23T00:14:05.810Z,2.60
2023-03-23T00:15:05.776Z,2.30
2023-03-23T00:16:05.774Z,2.00
2023-03-23T00:17:05.759Z,1.80
2023-03-23T00:18:05.743Z,2.30
2023-03-23T00:19:05.738Z,1.90
2023-03-23T00:20:05.740Z,2.10
2023-03-23T00:21:05.724Z,2.20
2023-03-23T00:22:05.703Z,2.50
2023-03-23T00:23:05.704Z,2.00
2023-03-23T00:24:05.695Z,2.30
2023-03-23T00:25:05.706Z,2.10
2023-03-23T00:26:05.664Z,2.10
2023-03-23T00:27:05.650Z,2.00
2023-03-23T00:28:05.631Z,3.00
2023-03-23T00:29:05.644Z,1.80
2023-03-23T00:30:05.657Z,2.10
2023-03-23T00:31:05.608Z,2.00
2023-03-23T00:32:05.591Z,2.10
2023-03-23T00:33:05.585Z,1.90
2023-03-23T00:34:05.571Z,1.80
2023-03-23T00:35:05.560Z,2.00
2023-03-23T00:36:05.580Z,2.00
2023-03-23T00:37:05.538Z,2.00
2023-03-23T00:38:05.526Z,2.20
2023-03-23T00:39:05.515Z,1.90
2023-03-23T00:40:05.509Z,2.20
2023-03-23T00:41:05.517Z,1.80
2023-03-23T00:42:05.482Z,1.90
2023-03-23T00:43:05.475Z,1.80
2023-03-23T00:44:05.462Z,1.70
2023-03-23T00:45:05.472Z,2.00
2023-03-23T00:46:05.447Z,1.80
2023-03-23T00:47:05.430Z,1.70
2023-03-23T00:48:05.430Z,1.90
2023-03-23T00:49:05.412Z,1.80
2023-03-23T00:50:05.414Z,1.50
2023-03-23T00:51:05.398Z,1.80
2023-03-23T00:52:05.372Z,1.60
2023-03-23T00:53:05.365Z,1.90
2023-03-23T00:54:05.367Z,1.80
2023-03-23T00:55:05.365Z,1.60
2023-03-23T00:56:05.341Z,2.00
2023-03-23T00:57:05.316Z,2.10
2023-03-23T00:58:05.308Z,1.70
2023-03-23T00:59:05.299Z,1.80
2023-03-23T01:00:06.065Z,1.60
2023-03-23T01:01:05.304Z,1.90
2023-03-23T01:02:05.265Z,1.80
2023-03-23T01:03:05.253Z,2.00
2023-03-23T01:04:05.244Z,1.90
2023-03-23T01:05:05.242Z,1.30
2023-03-23T01:06:05.233Z,1.70
2023-03-23T01:07:05.236Z,2.00
2023-03-23T01:08:05.200Z,1.90
2023-03-23T01:09:05.198Z,1.80
2023-03-23T01:10:05.193Z,1.90
2023-03-23T01:11:05.193Z,1.80
2023-03-23T01:12:05.177Z,1.70
2023-03-23T01:13:05.151Z,1.70
2023-03-23T01:14:05.132Z,1.50
2023-03-23T01:15:05.128Z,1.70
2023-03-23T01:16:05.130Z,1.80
2023-03-23T01:17:05.129Z,2.00
2023-03-23T01:18:05.095Z,1.90
2023-03-23T01:19:05.089Z,1.70
2023-03-23T01:20:05.070Z,2.00
2023-03-23T01:21:05.095Z,1.70
2023-03-23T01:22:05.049Z,1.80
2023-03-23T01:23:05.036Z,1.90
2023-03-23T01:24:05.027Z,2.10
2023-03-23T01:25:05.016Z,1.50
2023-03-23T01:26:04.997Z,1.60
2023-03-23T01:27:05.020Z,1.60
2023-03-23T01:28:04.984Z,1.80
2023-03-23T01:29:04.977Z,1.40
2023-03-23T01:30:05.001Z,1.70
2023-03-23T01:31:14.587Z,1.60
2023-03-23T01:32:04.942Z,1.70
2023-03-23T01:33:04.940Z,1.80
2023-03-23T01:34:04.922Z,1.50
2023-03-23T01:35:04.907Z,1.50
2023-03-23T01:36:04.919Z,1.80
2023-03-23T01:37:04.904Z,1.60
2023-03-23T01:38:04.880Z,1.20
2023-03-23T01:39:04.866Z,1.40
2023-03-23T01:40:04.851Z,1.40
2023-03-23T01:41:04.844Z,1.50
2023-03-23T01:42:04.855Z,1.30
2023-03-23T01:43:04.829Z,1.60
2023-03-23T01:44:04.805Z,1.50
2023-03-23T01:45:04.800Z,1.90
2023-03-23T01:46:04.788Z,1.50
2023-03-23T01:47:04.798Z,1.60
2023-03-23T01:48:04.765Z,1.20
2023-03-23T01:49:04.762Z,1.40
2023-03-23T01:50:04.750Z,1.40
2023-03-23T01:51:04.735Z,1.40
2023-03-23T01:52:04.726Z,1.60
2023-03-23T01:53:04.740Z,1.40
2023-03-23T01:54:04.724Z,1.40
2023-03-23T01:55:04.693Z,1.30
2023-03-23T01:56:04.687Z,1.50
2023-03-23T01:57:04.670Z,1.40
2023-03-23T01:58:04.680Z,1.50
2023-03-23T01:59:04.648Z,1.60
2023-03-23T02:00:04.643Z,1.20
2023-03-23T02:01:04.625Z,1.20
2023-03-23T02:02:04.627Z,1.30
2023-03-23T02:03:04.609Z,1.30
2023-03-23T02:04:04.612Z,1.40
2023-03-23T02:05:04.586Z,1.30
2023-03-23T02:06:04.584Z,1.50
2023-03-23T02:07:04.558Z,1.10
2023-03-23T02:08:04.552Z,1.60
2023-03-23T02:09:10.613Z,1.30
2023-03-23T02:10:04.533Z,1.30
2023-03-23T02:11:04.524Z,1.20
2023-03-23T02:12:04.507Z,1.60
2023-03-23T02:13:04.501Z,1.30
2023-03-23T02:14:04.486Z,1.30
2023-03-23T02:15:04.517Z,1.40
2023-03-23T02:16:04.461Z,1.70
2023-03-23T02:17:04.455Z,1.40
2023-03-23T02:18:04.436Z,1.10
2023-03-23T02:19:04.434Z,1.50
2023-03-23T02:20:04.450Z,1.40
2023-03-23T02:21:04.414Z,1.40
2023-03-23T02:22:04.391Z,1.40
2023-03-23T02:23:04.386Z,1.30
2023-03-23T02:24:04.375Z,1.40
2023-03-23T02:25:04.362Z,1.50
2023-03-23T02:26:04.370Z,1.50
2023-03-23T02:27:04.338Z,1.10
2023-03-23T02:28:04.334Z,1.30
2023-03-23T02:29:04.322Z,1.10
2023-03-23T02:30:04.325Z,1.30
2023-03-23T02:31:04.300Z,1.10
2023-03-23T02:32:04.281Z,1.40
2023-03-23T02:33:04.283Z,1.30
2023-03-23T02:34:04.281Z,1.30
2023-03-23T02:35:04.281Z,1.40
2023-03-23T02:36:04.285Z,1.20
2023-03-23T02:37:04.227Z,1.40
2023-03-23T02:38:04.221Z,1.10
2023-03-23T02:39:04.216Z,1.20
2023-03-23T02:40:04.199Z,1.40
2023-03-23T02:41:04.225Z,1.10
2023-03-23T02:42:04.278Z,1.50
2023-03-23T02:43:04.172Z,1.20
2023-03-23T02:44:04.152Z,1.20
2023-03-23T02:45:04.143Z,1.40
2023-03-23T02:46:04.157Z,1.30
2023-03-23T02:47:04.121Z,1.10
2023-03-23T02:48:04.108Z,1.10
2023-03-23T02:49:04.093Z,1.20
2023-03-23T02:50:04.083Z,1.10
2023-03-23T02:51:04.095Z,1.10
2023-03-23T02:52:04.067Z,1.30
2023-03-23T02:53:04.061Z,1.10
2023-03-23T02:54:04.042Z,1.10
2023-03-23T02:55:04.042Z,1.20
2023-03-23T02:56:04.044Z,1.00
2023-03-23T02:57:04.011Z,1.10
2023-03-23T02:58:04.000Z,1.00
2023-03-23T02:59:04.005Z,1.20
2023-03-23T03:00:03.983Z,1.00
2023-03-23T03:01:03.972Z,1.10
2023-03-23T03:02:03.969Z,1.10
2023-03-23T03:03:03.946Z,1.00
2023-03-23T03:04:03.950Z,0.90
2023-03-23T03:05:03.919Z,1.00
2023-03-23T03:06:03.913Z,1.20
2023-03-23T03:07:03.922Z,1.00
2023-03-23T03:08:03.887Z,1.00
2023-03-23T03:09:03.881Z,1.10
2023-03-23T03:10:03.867Z,0.90
2023-03-23T03:11:03.855Z,0.90
2023-03-23T03:12:03.881Z,1.00
2023-03-23T03:13:03.833Z,1.00
2023-03-23T03:14:03.823Z,1.10
2023-03-23T03:15:03.821Z,1.20
2023-03-23T03:16:03.805Z,0.90
2023-03-23T03:17:03.794Z,0.80
2023-03-23T03:18:03.806Z,0.80
2023-03-23T03:19:03.767Z,0.70
2023-03-23T03:20:03.767Z,0.60
2023-03-23T03:21:03.750Z,1.00
2023-03-23T03:22:03.761Z,1.10
2023-03-23T03:23:03.733Z,0.70
2023-03-23T03:24:03.762Z,1.00
2023-03-23T03:25:17.832Z,0.90
2023-03-23T03:26:03.697Z,0.80
2023-03-23T03:27:03.695Z,0.80
2023-03-23T03:28:04.227Z,0.90
2023-03-23T03:29:03.696Z,0.70
2023-03-23T03:30:03.669Z,0.60
2023-03-23T03:31:03.659Z,0.70
2023-03-23T03:32:03.632Z,0.80
2023-03-23T03:33:03.619Z,0.60
2023-03-23T03:34:03.639Z,0.80
2023-03-23T03:35:03.633Z,0.90
2023-03-23T03:36:03.627Z,0.80
2023-03-23T03:37:03.572Z,0.60
2023-03-23T03:38:03.571Z,0.80
2023-03-23T03:39:03.553Z,0.80
2023-03-23T03:40:03.564Z,0.70
2023-03-23T03:41:03.531Z,0.80
2023-03-23T03:42:03.523Z,0.60
2023-03-23T03:43:03.519Z,0.50
2023-03-23T03:44:03.531Z,0.60
2023-03-23T03:45:03.488Z,0.80
2023-03-23T03:46:03.479Z,0.60
2023-03-23T03:47:03.461Z,0.80
2023-03-23T03:48:03.456Z,0.90
2023-03-23T03:49:03.477Z,1.00
2023-03-23T03:50:03.433Z,0.90
2023-03-23T03:51:03.423Z,0.80
2023-03-23T03:52:03.411Z,0.80
2023-03-23T03:53:03.400Z,0.60
2023-03-23T03:54:03.396Z,0.70
2023-03-23T03:55:03.408Z,0.70
2023-03-23T03:56:03.376Z,0.70
2023-03-23T03:57:03.359Z,1.00
2023-03-23T03:58:03.347Z,0.80
2023-03-23T03:59:21.368Z,0.70
2023-03-23T04:00:03.335Z,0.70
2023-03-23T04:01:03.339Z,0.80
2023-03-23T04:02:03.312Z,0.80
2023-03-23T04:03:03.293Z,0.90
2023-03-23T04:04:09.848Z,0.90
2023-03-23T04:05:03.273Z,0.80
2023-03-23T04:06:03.255Z,0.70
2023-03-23T04:07:03.266Z,0.90
2023-03-23T04:08:09.540Z,0.70
2023-03-23T04:09:07.679Z,0.90
2023-03-23T04:10:03.222Z,1.00
2023-03-23T04:11:03.208Z,1.00
2023-03-23T04:12:03.206Z,0.80
2023-03-23T04:13:03.206Z,0.90
2023-03-23T04:14:03.176Z,0.80
2023-03-23T04:15:06.360Z,0.90
2023-03-23T04:16:10.215Z,1.30
2023-03-23T04:17:03.169Z,1.00
2023-03-23T04:18:03.151Z,0.90
2023-03-23T04:19:03.113Z,1.00
2023-03-23T04:20:03.110Z,0.80
2023-03-23T04:21:04.455Z,0.90
2023-03-23T04:22:03.086Z,0.80
2023-03-23T04:23:03.093Z,1.00
2023-03-23T04:24:03.066Z,0.90
2023-03-23T04:25:03.055Z,1.10
2023-03-23T04:26:03.041Z,1.10
2023-03-23T04:27:03.031Z,0.80
2023-03-23T04:28:03.021Z,1.00
2023-03-23T04:29:03.030Z,1.00
2023-03-23T04:30:03.005Z,0.90
2023-03-23T04:31:05.003Z,1.00
2023-03-23T04:32:03.005Z,1.00
2023-03-23T04:33:02.963Z,0.90
2023-03-23T04:34:02.986Z,1.00
2023-03-23T04:35:12.995Z,1.20
2023-03-23T04:36:02.985Z,0.90
2023-03-23T04:37:02.921Z,1.10
2023-03-23T04:38:02.913Z,0.90
2023-03-23T04:39:02.929Z,0.90
2023-03-23T04:40:02.895Z,1.00
2023-03-23T04:41:02.872Z,0.80
2023-03-23T04:42:02.867Z,0.90
2023-03-23T04:43:02.853Z,0.90
2023-03-23T04:44:02.868Z,1.00
2023-03-23T04:45:02.830Z,0.70
2023-03-23T04:46:02.822Z,1.00
2023-03-23T04:47:02.811Z,1.20
2023-03-23T04:48:02.804Z,1.00
2023-03-23T04:49:02.808Z,0.90
2023-03-23T04:50:02.798Z,0.70
2023-03-23T04:51:02.771Z,1.00
2023-03-23T04:52:02.765Z,0.90
2023-03-23T04:53:02.765Z,0.90
2023-03-23T04:54:02.733Z,1.20
2023-03-23T04:55:02.733Z,0.90
2023-03-23T04:56:02.716Z,0.90
2023-03-23T04:57:02.707Z,1.10
2023-03-23T04:58:02.693Z,1.00
2023-03-23T04:59:02.704Z,0.80
2023-03-23T05:00:02.668Z,1.10
2023-03-23T05:01:02.670Z,0.80
2023-03-23T05:02:14.748Z,0.90
2023-03-23T05:03:02.682Z,1.10
2023-03-23T05:04:02.628Z,1.00
2023-03-23T05:05:02.610Z,1.10
2023-03-23T05:06:02.664Z,0.90
2023-03-23T05:07:02.628Z,1.10
2023-03-23T05:08:02.614Z,1.10
2023-03-23T05:09:02.607Z,1.20
2023-03-23T05:10:02.594Z,0.60
2023-03-23T05:11:02.627Z,0.90
2023-03-23T05:12:02.542Z,1.40
2023-03-23T05:13:02.526Z,1.00
2023-03-23T05:14:02.521Z,0.90
2023-03-23T05:15:02.610Z,0.80
2023-03-23T05:16:02.596Z,1.20
2023-03-23T05:17:02.479Z,0.90
2023-03-23T05:18:02.495Z,0.80
2023-03-23T05:19:02.546Z,0.70
2023-03-23T05:20:02.489Z,0.70
2023-03-23T05:21:02.514Z,0.90
2023-03-23T05:22:02.508Z,1.10
2023-03-23T05:23:02.435Z,1.00
2023-03-23T05:24:02.410Z,1.20
2023-03-23T05:25:02.458Z,0.70
2023-03-23T05:26:02.504Z,1.20
2023-03-23T05:27:02.413Z,0.90
2023-03-23T05:28:03.359Z,0.90
2023-03-23T05:29:02.500Z,1.20
2023-03-23T05:30:54.232Z,0.90
2023-03-23T05:31:55.211Z,1.10
2023-03-23T05:32:55.203Z,0.90
2023-03-23T05:33:55.267Z,0.90
2023-03-23T05:34:55.209Z,1.20
2023-03-23T05:35:55.233Z,1.00
2023-03-23T05:36:55.232Z,1.10
2023-03-23T05:37:55.131Z,0.70
2023-03-23T05:38:55.126Z,0.80
2023-03-23T05:39:55.109Z,1.20
2023-03-23T05:40:55.099Z,1.00
2023-03-23T05:41:55.111Z,1.10
2023-03-23T05:42:55.081Z,1.30
2023-03-23T05:43:55.074Z,1.20
2023-03-23T05:44:55.065Z,1.10
2023-03-23T05:45:55.132Z,0.90
2023-03-23T05:46:55.068Z,0.80
2023-03-23T05:47:55.023Z,1.10
2023-03-23T05:48:55.008Z,1.10
2023-03-23T05:49:55.004Z,1.00
2023-03-23T05:50:54.984Z,1.10
2023-03-23T05:51:54.980Z,1.00
2023-03-23T05:52:54.990Z,1.20
2023-03-23T05:53:55.009Z,1.10
2023-03-23T05:54:54.950Z,1.20
2023-03-23T05:55:54.943Z,0.80
2023-03-23T05:56:54.920Z,1.20
2023-03-23T05:57:54.933Z,1.10
2023-03-23T05:58:54.904Z,1.20
2023-03-23T05:59:54.893Z,1.00
2023-03-23T06:00:54.886Z,1.10
2023-03-23T06:01:54.863Z,1.20
2023-03-23T06:02:54.855Z,1.60
2023-03-23T06:03:54.860Z,1.00
2023-03-23T06:04:54.834Z,1.20
2023-03-23T06:05:54.823Z,1.00
2023-03-23T06:06:54.808Z,1.00
2023-03-23T06:07:54.800Z,1.10
2023-03-23T06:08:54.827Z,1.10
2023-03-23T06:09:54.780Z,1.10
2023-03-23T06:10:54.805Z,1.00
2023-03-23T06:11:54.762Z,1.10
2023-03-23T06:12:54.792Z,1.20
2023-03-23T06:13:54.748Z,1.10
2023-03-23T06:14:54.743Z,1.10
2023-03-23T06:15:54.729Z,1.40
2023-03-23T06:16:54.703Z,1.10
2023-03-23T06:17:54.741Z,1.10
2023-03-23T06:18:54.687Z,1.10
2023-03-23T06:19:54.697Z,1.20
2023-03-23T06:20:54.705Z,1.20
2023-03-23T06:21:54.646Z,1.10
2023-03-23T06:22:54.657Z,1.10
2023-03-23T06:23:54.624Z,1.10
2023-03-23T06:24:54.624Z,1.30
2023-03-23T06:25:54.807Z,1.10
2023-03-23T06:26:54.590Z,0.90
2023-03-23T06:27:54.577Z,1.20
2023-03-23T06:28:54.588Z,1.30
2023-03-23T06:29:54.677Z,1.30
2023-03-23T06:30:54.591Z,1.00
2023-03-23T06:31:54.540Z,1.10
2023-03-23T06:32:54.520Z,1.20
2023-03-23T06:33:54.513Z,1.10
2023-03-23T06:34:54.528Z,1.40
2023-03-23T06:35:54.508Z,1.10
2023-03-23T06:36:54.476Z,1.30
2023-03-23T06:37:54.473Z,1.00
2023-03-23T06:38:54.483Z,1.30
2023-03-23T06:39:55.275Z,1.20
2023-03-23T06:40:54.463Z,1.30
2023-03-23T06:41:54.419Z,1.30
2023-03-23T06:42:54.404Z,1.00
2023-03-23T06:43:54.436Z,1.10
2023-03-23T06:44:54.388Z,1.40
2023-03-23T06:45:54.382Z,1.20
2023-03-23T06:46:54.385Z,1.20
2023-03-23T06:47:54.358Z,1.20
2023-03-23T06:48:54.338Z,1.30
2023-03-23T06:49:54.340Z,1.10
2023-03-23T06:50:54.320Z,1.30
2023-03-23T06:51:54.336Z,1.00
2023-03-23T06:52:54.305Z,1.20
2023-03-23T06:53:54.287Z,1.20
2023-03-23T06:54:54.274Z,1.30
2023-03-23T06:55:54.269Z,1.50
2023-03-23T06:56:54.254Z,1.40
2023-03-23T06:57:54.268Z,1.00
2023-03-23T06:58:54.235Z,1.60
2023-03-23T06:59:54.225Z,1.10
2023-03-23T07:00:54.208Z,1.20
2023-03-23T07:01:54.220Z,1.20
2023-03-23T07:02:54.190Z,0.90
2023-03-23T07:03:54.175Z,1.30
2023-03-23T07:04:54.163Z,1.20
2023-03-23T07:05:54.153Z,1.10
2023-03-23T07:06:54.222Z,1.00
2023-03-23T07:07:54.132Z,1.20
2023-03-23T07:08:54.145Z,1.10
2023-03-23T07:09:54.107Z,1.00
2023-03-23T07:10:54.096Z,1.00
2023-03-23T07:11:54.111Z,1.30
2023-03-23T07:12:54.076Z,0.80
2023-03-23T07:13:54.061Z,1.20
2023-03-23T07:14:54.080Z,1.00
2023-03-23T07:15:54.058Z,1.40
2023-03-23T07:16:54.052Z,1.40
2023-03-23T07:17:54.028Z,1.10
2023-03-23T07:18:54.009Z,1.20
2023-03-23T07:19:53.997Z,1.10
2023-03-23T07:20:54.090Z,1.40
2023-03-23T07:21:53.971Z,1.10
2023-03-23T07:22:54.000Z,1.00
2023-03-23T07:23:53.952Z,1.30
2023-03-23T07:24:53.943Z,1.20
2023-03-23T07:25:53.932Z,1.20
2023-03-23T07:26:53.917Z,1.10
2023-03-23T07:27:53.907Z,1.50
2023-03-23T07:28:55.698Z,1.10
2023-03-23T07:29:53.888Z,1.20
2023-03-23T07:30:53.872Z,1.10
2023-03-23T07:31:53.877Z,1.10
2023-03-23T07:32:53.849Z,1.10
2023-03-23T07:33:53.926Z,1.50
2023-03-23T07:34:53.831Z,1.50
2023-03-23T07:35:53.832Z,1.30
2023-03-23T07:36:53.837Z,1.00
2023-03-23T07:37:53.799Z,1.10
2023-03-23T07:38:53.784Z,1.40
2023-03-23T07:39:53.770Z,1.00
2023-03-23T07:40:53.785Z,1.10
2023-03-23T07:41:53.750Z,1.30
2023-03-23T07:42:53.745Z,1.20
2023-03-23T07:43:53.734Z,1.60
2023-03-23T07:44:53.744Z,1.10
2023-03-23T07:45:53.703Z,1.00
2023-03-23T07:46:53.694Z,1.20
2023-03-23T07:47:53.682Z,1.10
2023-03-23T07:48:53.678Z,1.10
2023-03-23T07:49:53.658Z,1.10
2023-03-23T07:50:53.672Z,1.60
2023-03-23T07:51:53.642Z,1.30
2023-03-23T07:52:53.624Z,1.20
2023-03-23T07:53:53.615Z,1.10
2023-03-23T07:54:53.609Z,1.00
2023-03-23T07:55:53.594Z,1.30
2023-03-23T07:56:53.619Z,1.00
2023-03-23T07:57:53.565Z,0.90
2023-03-23T07:58:53.589Z,1.20
2023-03-23T07:59:53.547Z,1.00
2023-03-23T08:00:53.541Z,1.20
2023-03-23T08:01:53.525Z,1.20
2023-03-23T08:02:53.524Z,1.40
2023-03-23T08:03:53.500Z,1.30
2023-03-23T08:04:53.516Z,1.30
2023-03-23T08:05:53.496Z,1.30
2023-03-23T08:06:53.471Z,1.20
2023-03-23T08:07:53.458Z,1.20
2023-03-23T08:08:55.472Z,1.10
2023-03-23T08:09:53.460Z,1.30
2023-03-23T08:10:53.473Z,0.90
2023-03-23T08:11:53.411Z,1.10
2023-03-23T08:12:53.425Z,1.10
2023-03-23T08:13:53.466Z,1.20
2023-03-23T08:14:53.381Z,1.10
2023-03-23T08:15:53.364Z,1.00
2023-03-23T08:16:53.361Z,1.10
2023-03-23T08:17:53.367Z,1.30
2023-03-23T08:18:53.338Z,1.10
2023-03-23T08:19:53.321Z,1.40
2023-03-23T08:20:54.422Z,1.20
2023-03-23T08:21:53.298Z,1.20
2023-03-23T08:22:53.597Z,1.20
2023-03-23T08:23:53.295Z,1.20
2023-03-23T08:24:53.267Z,1.00
2023-03-23T08:25:53.277Z,1.00
2023-03-23T08:26:53.242Z,1.10
2023-03-23T08:27:53.255Z,1.20
2023-03-23T08:28:53.223Z,1.10
2023-03-23T08:29:53.217Z,1.30
2023-03-23T08:30:53.204Z,1.30
2023-03-23T08:31:53.195Z,1.00
2023-03-23T08:32:53.172Z,1.00
2023-03-23T08:33:53.198Z,1.30
2023-03-23T08:34:53.152Z,1.00
2023-03-23T08:35:53.149Z,0.70
2023-03-23T08:36:53.156Z,1.30
2023-03-23T08:37:53.114Z,1.20
2023-03-23T08:38:53.136Z,1.20
2023-03-23T08:39:53.131Z,1.40
2023-03-23T08:40:53.091Z,1.30
2023-03-23T08:41:53.074Z,0.90
2023-03-23T08:43:00.871Z,1.30
2023-03-23T08:43:53.079Z,1.30
2023-03-23T08:44:53.040Z,1.40
2023-03-23T08:45:53.029Z,1.10
2023-03-23T08:46:53.035Z,1.20
2023-03-23T08:47:53.013Z,1.40
2023-03-23T08:48:53.020Z,1.10
2023-03-23T08:49:52.996Z,1.10
2023-03-23T08:50:52.975Z,1.30
2023-03-23T08:51:52.965Z,1.20
2023-03-23T08:52:52.956Z,1.20
2023-03-23T08:53:52.960Z,1.10
2023-03-23T08:54:52.966Z,1.00
2023-03-23T08:55:52.922Z,1.10
2023-03-23T08:56:52.907Z,1.20
2023-03-23T08:57:52.896Z,1.00
2023-03-23T08:58:52.889Z,1.40
2023-03-23T08:59:52.872Z,0.90
2023-03-23T09:00:52.891Z,1.00
2023-03-23T09:01:52.850Z,1.30
2023-03-23T09:02:52.843Z,1.30
2023-03-23T09:03:52.840Z,1.10
2023-03-23T09:04:52.822Z,1.10
2023-03-23T09:05:52.805Z,1.20
2023-03-23T09:06:52.821Z,1.00
2023-03-23T09:07:52.786Z,1.10
2023-03-23T09:08:52.802Z,1.00
2023-03-23T09:09:52.769Z,1.00
2023-03-23T09:10:52.757Z,1.40
2023-03-23T09:11:52.741Z,1.10
2023-03-23T09:12:52.738Z,1.20
2023-03-23T09:13:52.725Z,1.00
2023-03-23T09:14:52.730Z,0.90
2023-03-23T09:16:52.687Z,1.40
2023-03-23T09:17:52.695Z,1.20
2023-03-23T09:18:52.669Z,0.80
2023-03-23T09:19:52.665Z,1.00
2023-03-23T09:20:52.670Z,1.50
2023-03-23T09:21:52.629Z,1.20
2023-03-23T09:22:52.624Z,1.10
2023-03-23T09:23:52.615Z,1.40
2023-03-23T09:24:52.601Z,1.40
2023-03-23T09:25:52.607Z,1.30
2023-03-23T09:26:52.574Z,1.10
2023-03-23T09:27:52.567Z,1.20
2023-03-23T09:28:52.548Z,1.30
2023-03-23T09:29:52.540Z,1.10
2023-03-23T09:30:53.520Z,1.10
2023-03-23T09:31:52.516Z,1.30
2023-03-23T09:32:52.644Z,1.10
2023-03-23T09:33:52.496Z,1.00
2023-03-23T09:34:52.493Z,0.90
2023-03-23T09:35:52.549Z,1.10
2023-03-23T09:36:52.463Z,1.30
2023-03-23T09:37:52.456Z,1.30
2023-03-23T09:38:52.441Z,1.30
2023-03-23T09:39:52.432Z,1.00
2023-03-23T09:40:52.421Z,1.10
2023-03-23T09:41:52.447Z,0.90
2023-03-23T09:42:54.386Z,1.00
2023-03-23T09:43:52.388Z,1.10
2023-03-23T09:44:52.374Z,1.10
2023-03-23T09:45:52.366Z,1.30
2023-03-23T09:46:52.379Z,1.00
2023-03-23T09:47:52.353Z,1.50
2023-03-23T09:48:52.335Z,1.00
2023-03-23T09:49:52.327Z,1.10
2023-03-23T09:50:52.320Z,1.30
2023-03-23T09:51:52.328Z,0.90
2023-03-23T09:52:52.291Z,0.60
2023-03-23T09:53:52.324Z,0.90
2023-03-23T09:54:52.290Z,1.20
2023-03-23T09:55:52.258Z,0.60
2023-03-23T09:56:52.382Z,0.80
2023-03-23T09:57:52.248Z,0.20
2023-03-23T09:58:52.250Z,0.40
2023-03-23T09:59:52.293Z,0.30
2023-03-23T10:00:52.331Z,0.60
2023-03-23T10:01:52.328Z,0.20
2023-03-23T10:02:52.416Z,0.40
2023-03-23T10:03:52.303Z,0.30
2023-03-23T10:04:54.113Z,0.30
2023-03-23T10:05:52.178Z,0.30
2023-03-23T10:06:52.177Z,0.20
2023-03-23T10:07:52.200Z,0.20
2023-03-23T10:08:57.477Z,0.30
2023-03-23T10:09:52.168Z,0.30
2023-03-23T10:10:52.146Z,0.20
2023-03-23T10:11:52.603Z,0.30
2023-03-23T10:12:52.098Z,0.30
2023-03-23T10:13:52.212Z,0.20
2023-03-23T10:14:52.096Z,0.10
2023-03-23T10:15:52.805Z,0.10
2023-03-23T10:16:52.484Z,0.20
2023-03-23T10:17:52.233Z,0.20
2023-03-23T10:18:52.010Z,0.20
2023-03-23T10:19:52.078Z,0.30
2023-03-23T10:20:51.998Z,0.50
2023-03-23T10:21:51.985Z,0.30
2023-03-23T10:22:51.957Z,0.40
2023-03-23T10:23:51.949Z,0.20
2023-03-23T10:24:51.938Z,0.20
2023-03-23T10:25:51.925Z,0.20
2023-03-23T10:26:51.944Z,0.30
2023-03-23T10:27:51.925Z,0.30
2023-03-23T10:28:51.896Z,0.20
2023-03-23T10:29:51.884Z,0.20
2023-03-23T10:30:51.876Z,0.30
2023-03-23T10:31:51.856Z,0.00
2023-03-23T10:32:51.888Z,0.10
2023-03-23T10:33:51.847Z,0.20
2023-03-23T10:34:51.830Z,0.10
2023-03-23T10:35:51.832Z,0.30
2023-03-23T10:36:51.803Z,0.30
2023-03-23T10:37:51.795Z,0.30
2023-03-23T10:38:51.800Z,0.40
2023-03-23T10:39:51.773Z,0.20
2023-03-23T10:40:51.767Z,0.30
2023-03-23T10:41:51.745Z,0.30
2023-03-23T10:42:51.762Z,0.30
2023-03-23T10:43:51.755Z,0.30
2023-03-23T10:44:51.745Z,0.20
2023-03-23T10:46:00.609Z,0.20
2023-03-23T10:46:51.698Z,0.40
2023-03-23T10:47:51.695Z,0.20
2023-03-23T10:48:51.675Z,0.30
2023-03-23T10:49:51.665Z,0.30
2023-03-23T10:50:51.686Z,0.30
2023-03-23T10:51:51.647Z,0.50
2023-03-23T10:52:51.635Z,0.20
2023-03-23T10:53:51.618Z,0.20
2023-03-23T10:54:51.625Z,0.30
2023-03-23T10:55:51.623Z,0.40
2023-03-23T10:56:59.781Z,0.30
2023-03-23T10:57:51.578Z,0.50
2023-03-23T10:58:51.565Z,0.20
2023-03-23T10:59:51.547Z,0.30
2023-03-23T11:00:51.539Z,0.30
2023-03-23T11:01:51.557Z,0.20
2023-03-23T11:02:51.521Z,0.60
2023-03-23T11:03:51.506Z,0.20
2023-03-23T11:04:51.498Z,0.50
2023-03-23T11:05:51.486Z,0.40
2023-03-23T11:06:51.502Z,0.40
2023-03-23T11:07:51.460Z,0.30
2023-03-23T11:08:51.489Z,0.50
2023-03-23T11:09:51.449Z,0.40
2023-03-23T11:10:52.379Z,0.50
2023-03-23T11:11:53.308Z,0.40
2023-03-23T11:12:51.446Z,0.40
2023-03-23T11:13:51.394Z,0.20
2023-03-23T11:14:51.390Z,0.40
2023-03-23T11:15:51.415Z,0.30
2023-03-23T11:16:51.383Z,0.40
2023-03-23T11:17:51.380Z,0.40
2023-03-23T11:18:51.342Z,0.40
2023-03-23T11:19:51.331Z,0.40
2023-03-23T11:20:51.320Z,0.40
2023-03-23T11:21:51.307Z,0.40
2023-03-23T11:22:51.318Z,0.60
2023-03-23T11:23:57.882Z,0.60
2023-03-23T11:24:51.277Z,0.20
2023-03-23T11:25:51.261Z,0.30
2023-03-23T11:26:58.778Z,0.40
2023-03-23T11:27:51.285Z,0.30
2023-03-23T11:28:51.233Z,0.50
2023-03-23T11:29:55.046Z,0.70
2023-03-23T11:30:51.218Z,0.70
2023-03-23T11:31:57.746Z,0.30
2023-03-23T11:32:51.185Z,0.40
2023-03-23T11:34:00.377Z,0.40
2023-03-23T11:34:51.170Z,0.30
2023-03-23T11:35:51.198Z,0.40
2023-03-23T11:36:51.214Z,0.70
2023-03-23T11:37:51.127Z,0.50
2023-03-23T11:38:51.145Z,0.20
2023-03-23T11:39:51.103Z,0.40
2023-03-23T11:40:51.094Z,0.40
2023-03-23T11:42:00.261Z,0.40
2023-03-23T11:42:51.074Z,0.40
2023-03-23T11:43:51.082Z,0.40
2023-03-23T11:44:51.048Z,0.30
2023-03-23T11:45:51.062Z,0.40
2023-03-23T11:46:51.024Z,0.30
2023-03-23T11:47:51.016Z,0.40
2023-03-23T11:48:51.027Z,0.60
2023-03-23T11:49:50.996Z,0.80
2023-03-23T11:50:50.979Z,0.40
2023-03-23T11:51:51.002Z,0.30
2023-03-23T11:52:50.956Z,0.40
2023-03-23T11:53:50.952Z,0.50
2023-03-23T11:54:50.934Z,0.40
2023-03-23T11:55:50.956Z,0.40
2023-03-23T11:56:50.938Z,0.30
2023-03-23T11:57:50.908Z,0.20
2023-03-23T11:58:50.894Z,0.50
2023-03-23T11:59:50.888Z,0.40
2023-03-23T12:00:50.870Z,0.40
2023-03-23T12:01:50.878Z,0.50
2023-03-23T12:02:50.845Z,0.30
2023-03-23T12:03:50.831Z,0.30
2023-03-23T12:04:50.822Z,0.20
2023-03-23T12:05:50.814Z,0.20
2023-03-23T12:06:50.802Z,0.20
2023-03-23T12:07:50.817Z,0.40
2023-03-23T12:08:50.777Z,0.40
2023-03-23T12:09:50.769Z,0.20
2023-03-23T12:11:50.746Z,0.50
2023-03-23T12:12:50.760Z,0.50
2023-03-23T12:13:53.239Z,0.30
2023-03-23T12:14:50.713Z,0.40
2023-03-23T12:15:50.707Z,0.40
2023-03-23T12:16:50.689Z,0.40
2023-03-23T12:17:50.684Z,0.10
2023-03-23T12:18:50.688Z,0.30
2023-03-23T12:19:50.660Z,0.40
2023-03-23T12:20:50.646Z,0.30
2023-03-23T12:21:50.637Z,0.50
2023-03-23T12:22:50.622Z,0.40
2023-03-23T12:23:50.642Z,0.30
2023-03-23T12:24:50.600Z,0.40
2023-03-23T12:25:50.589Z,0.40
2023-03-23T12:26:50.586Z,0.40
2023-03-23T12:27:50.569Z,0.40
2023-03-23T12:28:50.561Z,0.40
2023-03-23T12:29:50.574Z,0.40
2023-03-23T12:30:50.538Z,0.30
2023-03-23T12:31:50.546Z,0.40
2023-03-23T12:32:50.524Z,0.70
2023-03-23T12:33:50.501Z,0.70
2023-03-23T12:34:50.492Z,0.30
2023-03-23T12:35:50.501Z,0.30
2023-03-23T12:36:50.528Z,0.50
2023-03-23T12:37:50.453Z,0.30
2023-03-23T12:38:50.534Z,0.60
2023-03-23T12:39:50.469Z,0.20
2023-03-23T12:40:51.279Z,0.50
2023-03-23T12:41:50.413Z,0.80
2023-03-23T12:42:50.404Z,0.30
2023-03-23T12:43:50.394Z,0.30
2023-03-23T12:44:50.380Z,0.60
2023-03-23T12:45:50.386Z,0.30
2023-03-23T12:46:50.639Z,0.30
2023-03-23T12:47:50.349Z,0.40
2023-03-23T12:48:50.332Z,0.40
2023-03-23T12:49:50.324Z,0.40
2023-03-23T12:50:50.335Z,0.40
2023-03-23T12:51:50.304Z,0.60
2023-03-23T12:52:50.289Z,0.50
2023-03-23T12:53:50.280Z,0.30
2023-03-23T12:54:50.281Z,0.60
2023-03-23T12:55:50.280Z,0.40
2023-03-23T12:56:50.249Z,0.40
2023-03-23T12:57:50.241Z,0.60
2023-03-23T12:58:53.737Z,0.30
2023-03-23T12:59:50.219Z,0.30
2023-03-23T13:00:50.220Z,0.50
2023-03-23T13:01:50.193Z,1.00
2023-03-23T13:02:50.174Z,0.30
2023-03-23T13:03:50.172Z,0.30
2023-03-23T13:04:50.608Z,0.30
2023-03-23T13:05:50.142Z,0.50
2023-03-23T13:06:50.156Z,0.30
2023-03-23T13:07:50.119Z,0.40
2023-03-23T13:08:50.110Z,0.30
2023-03-23T13:09:50.111Z,0.40
2023-03-23T13:10:50.091Z,0.40
2023-03-23T13:11:50.103Z,0.50
2023-03-23T13:12:50.190Z,0.60
2023-03-23T13:13:55.199Z,0.50
2023-03-23T13:14:50.262Z,0.50
2023-03-23T13:15:50.117Z,0.70
2023-03-23T13:16:50.263Z,0.50
2023-03-23T13:17:50.317Z,0.70
2023-03-23T13:18:50.926Z,0.60
2023-03-23T13:19:50.057Z,0.70
2023-03-23T13:20:49.993Z,0.80